Time;durP1;ratioP1;P1;durP2;ratioP2;P2;SDS_P1;SDS_P2;PMS_P1;PMS_P2;Temp;Humidity;BMP_temperature;BMP_pressure;BME280_temperature;BME280_humidity;BME280_pressure;Samples;Min_cycle;Max_cycle;Signal;HPM_P1;HPM_P2
2024/01/13 00:01:50;;;;;;;33.57;6.53;;;2.00;87.30;;;;;;5029244;28;20081;-74
2024/01/13 00:04:16;;;;;;;31.07;7.20;;;2.00;87.30;;;;;;5047672;28;20067;-73
2024/01/13 00:06:42;;;;;;;27.70;7.50;;;2.00;87.40;;;;;;5028110;28;20048;-74
2024/01/13 00:09:07;;;;;;;36.17;8.17;;;2.00;87.30;;;;;;5051500;28;20041;-75
2024/01/13 00:11:33;;;;;;;33.50;8.27;;;2.00;87.40;;;;;;5045026;28;20045;-74
2024/01/13 00:13:59;;;;;;;31.57;8.97;;;2.00;87.40;;;;;;5043532;28;20267;-74
2024/01/13 00:16:25;;;;;;;31.40;8.07;;;2.00;87.50;;;;;;4995164;28;20052;-75
2024/01/13 00:18:51;;;;;;;27.80;10.57;;;2.10;87.60;;;;;;5047808;28;20696;-74
2024/01/13 00:21:16;;;;;;;34.60;11.53;;;2.10;87.60;;;;;;5048791;28;20053;-74
2024/01/13 00:23:42;;;;;;;21.03;10.53;;;2.10;87.70;;;;;;5042335;28;20112;-75
2024/01/13 00:26:08;;;;;;;26.13;10.77;;;2.10;87.80;;;;;;5028961;28;20403;-74
2024/01/13 00:28:33;;;;;;;24.97;9.83;;;2.10;87.90;;;;;;5040494;28;20056;-74
2024/01/13 00:30:59;;;;;;;23.57;9.80;;;2.10;87.90;;;;;;5021757;28;20081;-74
2024/01/13 00:33:25;;;;;;;28.40;9.30;;;2.20;88.00;;;;;;5029281;28;20072;-74
2024/01/13 00:35:50;;;;;;;28.50;8.60;;;2.20;87.90;;;;;;5034784;28;20098;-73
2024/01/13 00:38:16;;;;;;;23.70;8.40;;;2.20;87.90;;;;;;5035172;28;20068;-74
2024/01/13 00:40:42;;;;;;;28.13;7.67;;;2.10;88.00;;;;;;5056965;28;20047;-74
2024/01/13 00:43:09;;;;;;;19.53;7.70;;;2.10;87.90;;;;;;5058360;28;20041;-74
2024/01/13 00:45:34;;;;;;;30.70;7.60;;;2.10;88.00;;;;;;5020210;28;20483;-73
2024/01/13 00:48:03;;;;;;;25.67;7.87;;;2.10;88.00;;;;;;5051206;28;20102;-74
2024/01/13 00:50:29;;;;;;;22.77;6.97;;;2.10;87.90;;;;;;5047262;28;20100;-76
2024/01/13 00:52:55;;;;;;;24.77;7.00;;;2.10;87.90;;;;;;5026747;28;20606;-74
2024/01/13 00:55:20;;;;;;;24.77;7.40;;;2.10;87.90;;;;;;5050409;28;20059;-74
2024/01/13 00:57:46;;;;;;;30.23;8.30;;;2.00;88.00;;;;;;5025898;28;20041;-74
2024/01/13 01:00:12;;;;;;;22.33;7.27;;;2.00;87.90;;;;;;5031454;28;20057;-75
2024/01/13 01:02:38;;;;;;;26.23;6.90;;;2.00;87.80;;;;;;5007189;28;20489;-73
2024/01/13 01:05:04;;;;;;;23.80;7.10;;;2.00;87.90;;;;;;5022861;28;20121;-73
2024/01/13 01:07:30;;;;;;;28.70;7.17;;;1.90;87.80;;;;;;5020045;28;20544;-73
2024/01/13 01:09:55;;;;;;;25.90;7.43;;;1.90;87.90;;;;;;5020803;28;20140;-74
2024/01/13 01:12:21;;;;;;;32.70;7.10;;;1.90;87.80;;;;;;5018721;28;20091;-75
2024/01/13 01:14:47;;;;;;;26.93;6.63;;;1.90;87.90;;;;;;5003541;28;20064;-74
2024/01/13 01:17:13;;;;;;;26.23;7.13;;;1.90;87.80;;;;;;5029041;28;20546;-73
2024/01/13 01:19:39;;;;;;;26.60;7.40;;;1.90;87.90;;;;;;5025557;28;20088;-74
2024/01/13 01:22:04;;;;;;;37.90;8.30;;;1.90;87.90;;;;;;5046749;28;20044;-74
2024/01/13 01:24:30;;;;;;;41.77;9.53;;;1.90;88.00;;;;;;5053232;28;20049;-74
2024/01/13 01:26:56;;;;;;;30.80;8.73;;;2.00;88.00;;;;;;5053891;28;20144;-74
2024/01/13 01:29:21;;;;;;;33.70;8.40;;;2.00;88.10;;;;;;5056392;28;20048;-75
2024/01/13 01:31:47;;;;;;;23.90;7.53;;;2.00;88.10;;;;;;5034335;28;20049;-75
2024/01/13 01:34:13;;;;;;;19.13;7.27;;;2.00;88.10;;;;;;5043532;28;20092;-73
2024/01/13 01:36:38;;;;;;;28.03;7.30;;;2.00;88.10;;;;;;5056404;28;20079;-74
2024/01/13 01:39:04;;;;;;;21.90;7.03;;;2.10;88.20;;;;;;5056644;28;20143;-73
2024/01/13 01:41:31;;;;;;;21.17;7.67;;;2.10;88.20;;;;;;5044988;28;20543;-74
2024/01/13 01:43:57;;;;;;;35.40;8.20;;;2.10;88.30;;;;;;5051102;28;20058;-74
2024/01/13 01:46:23;;;;;;;21.63;8.07;;;2.10;88.20;;;;;;5046063;28;20052;-73
2024/01/13 01:48:55;;;;;;;17.27;7.27;;;2.10;88.30;;;;;;5026642;28;20063;-74
2024/01/13 01:51:22;;;;;;;24.83;7.73;;;2.20;88.40;;;;;;5044323;28;20110;-74
2024/01/13 01:53:50;;;;;;;22.87;7.03;;;2.20;88.40;;;;;;5033343;28;20041;-75
2024/01/13 01:56:23;;;;;;;19.50;7.30;;;2.20;88.40;;;;;;5049218;28;20423;-73
2024/01/13 01:58:51;;;;;;;26.70;7.77;;;2.20;88.40;;;;;;5048046;28;20126;-75
2024/01/13 02:01:17;;;;;;;27.63;8.10;;;2.20;88.40;;;;;;5047944;28;20147;-75
2024/01/13 02:03:43;;;;;;;24.83;7.33;;;2.20;88.40;;;;;;5052382;28;20087;-73
2024/01/13 02:06:10;;;;;;;32.30;7.70;;;2.20;88.50;;;;;;5028588;28;20036;-75
2024/01/13 02:08:39;;;;;;;21.53;7.63;;;2.20;88.40;;;;;;5051074;28;20128;-73
2024/01/13 02:11:06;;;;;;;26.47;8.13;;;2.20;88.40;;;;;;5054648;28;20140;-74
2024/01/13 02:13:32;;;;;;;25.80;7.50;;;2.20;88.40;;;;;;5059643;28;20052;-74
2024/01/13 02:15:57;;;;;;;30.63;7.63;;;2.10;88.30;;;;;;5048971;28;20521;-76
2024/01/13 02:18:23;;;;;;;32.97;7.47;;;2.10;88.40;;;;;;5053947;28;20701;-74
2024/01/13 02:20:49;;;;;;;26.87;7.07;;;2.10;88.30;;;;;;5025106;28;20084;-74
2024/01/13 02:23:14;;;;;;;26.83;7.87;;;2.10;88.30;;;;;;5038551;28;20056;-74
2024/01/13 02:25:40;;;;;;;24.07;6.93;;;2.10;88.30;;;;;;5017245;28;20054;-74
2024/01/13 02:28:05;;;;;;;25.07;7.50;;;2.10;88.30;;;;;;5043030;28;20123;-73
2024/01/13 02:30:31;;;;;;;24.77;6.67;;;2.10;88.30;;;;;;5026678;28;20050;-75
2024/01/13 02:32:57;;;;;;;21.90;7.00;;;2.10;88.40;;;;;;5023832;28;20053;-74
2024/01/13 02:35:22;;;;;;;18.37;6.13;;;2.10;88.40;;;;;;5026236;28;22185;-73
2024/01/13 02:37:48;;;;;;;25.03;6.17;;;2.10;88.40;;;;;;5025786;28;20479;-75
2024/01/13 02:40:14;;;;;;;24.30;7.00;;;2.10;88.40;;;;;;5034130;28;20049;-73
2024/01/13 02:42:39;;;;;;;18.90;6.00;;;2.10;88.50;;;;;;5016251;28;20044;-74
2024/01/13 02:45:05;;;;;;;19.80;5.40;;;2.20;88.50;;;;;;5012435;28;20049;-74
2024/01/13 02:47:39;;;;;;;23.27;5.37;;;2.20;88.50;;;;;;5032212;28;20814;-74
2024/01/13 02:50:05;;;;;;;19.73;5.37;;;2.20;88.50;;;;;;5037932;28;20068;-74
2024/01/13 02:52:31;;;;;;;16.77;4.20;;;2.20;88.40;;;;;;5039166;28;20049;-73
2024/01/13 02:54:56;;;;;;;17.93;3.80;;;2.20;88.60;;;;;;5033382;28;20450;-74
2024/01/13 02:57:22;;;;;;;14.30;3.63;;;2.20;88.50;;;;;;5032721;28;20045;-73
2024/01/13 02:59:48;;;;;;;13.50;3.50;;;2.20;88.60;;;;;;5046278;28;20055;-74
2024/01/13 03:02:13;;;;;;;9.30;3.07;;;2.20;88.50;;;;;;5028245;28;20052;-74
2024/01/13 03:04:39;;;;;;;13.13;3.00;;;2.20;88.50;;;;;;5048926;28;20524;-74
2024/01/13 03:07:05;;;;;;;13.53;3.20;;;2.20;88.50;;;;;;5036153;28;20172;-74
2024/01/13 03:09:30;;;;;;;14.77;3.37;;;2.20;88.50;;;;;;5042488;28;20099;-74
2024/01/13 03:11:56;;;;;;;15.03;3.40;;;2.20;88.50;;;;;;5037012;28;20544;-75
2024/01/13 03:14:22;;;;;;;17.70;3.63;;;2.20;88.40;;;;;;5052439;28;20083;-74
2024/01/13 03:16:47;;;;;;;15.33;3.83;;;2.10;88.50;;;;;;5024715;28;20405;-75
2024/01/13 03:19:13;;;;;;;14.00;3.83;;;2.10;88.40;;;;;;5029535;28;20061;-73
2024/01/13 03:21:39;;;;;;;16.20;3.50;;;2.10;88.40;;;;;;5026433;28;20423;-74
2024/01/13 03:24:05;;;;;;;16.07;3.53;;;2.10;88.50;;;;;;5028936;28;20736;-73
2024/01/13 03:26:30;;;;;;;17.47;3.30;;;2.10;88.50;;;;;;5021139;28;20053;-74
2024/01/13 03:28:56;;;;;;;11.10;2.87;;;2.10;88.50;;;;;;5024032;28;20261;-74
2024/01/13 03:31:22;;;;;;;10.87;3.20;;;2.10;88.50;;;;;;5025308;28;20050;-73
2024/01/13 03:33:47;;;;;;;10.63;3.03;;;2.10;88.50;;;;;;5030546;28;20129;-73
2024/01/13 03:36:13;;;;;;;11.27;3.00;;;2.10;88.30;;;;;;5019150;28;20042;-74
2024/01/13 03:38:39;;;;;;;8.00;3.40;;;2.10;88.40;;;;;;5027121;28;20596;-75
2024/01/13 03:41:05;;;;;;;13.77;2.90;;;2.10;88.30;;;;;;5023440;28;20049;-74
2024/01/13 03:43:31;;;;;;;13.20;3.50;;;2.10;88.30;;;;;;5033234;28;20076;-73
2024/01/13 03:45:56;;;;;;;16.43;3.27;;;2.10;88.30;;;;;;5023387;28;20057;-73
2024/01/13 03:48:22;;;;;;;15.60;3.50;;;2.10;88.40;;;;;;5059182;28;20136;-74
2024/01/13 03:50:48;;;;;;;13.63;3.33;;;2.10;88.30;;;;;;5041914;28;20064;-74
2024/01/13 03:53:13;;;;;;;9.73;3.50;;;2.10;88.40;;;;;;5026597;28;20056;-73
2024/01/13 03:55:39;;;;;;;19.33;3.67;;;2.10;88.30;;;;;;5024256;28;20432;-74
2024/01/13 03:58:05;;;;;;;11.87;3.00;;;2.10;88.40;;;;;;5028003;28;20060;-74
2024/01/13 04:00:32;;;;;;;14.83;4.10;;;2.10;88.40;;;;;;5017481;28;20069;-75
2024/01/13 04:02:58;;;;;;;14.77;3.90;;;2.10;88.40;;;;;;5028826;28;20053;-73
2024/01/13 04:05:24;;;;;;;18.17;4.07;;;2.10;88.50;;;;;;5025301;28;20099;-73
2024/01/13 04:07:49;;;;;;;17.67;4.40;;;2.10;88.50;;;;;;5016911;28;20055;-74
2024/01/13 04:10:15;;;;;;;13.90;4.13;;;2.10;88.40;;;;;;5021704;28;20049;-74
2024/01/13 04:12:43;;;;;;;12.47;3.50;;;2.10;88.40;;;;;;5022025;28;20096;-74
2024/01/13 04:15:10;;;;;;;16.53;4.40;;;2.10;88.50;;;;;;5031171;28;20484;-74
2024/01/13 04:17:35;;;;;;;14.63;4.20;;;2.10;88.50;;;;;;5007878;28;20064;-74
2024/01/13 04:20:01;;;;;;;17.87;5.40;;;2.10;88.40;;;;;;5022048;28;20052;-74
2024/01/13 04:22:27;;;;;;;15.37;4.30;;;2.10;88.50;;;;;;5030568;28;20057;-74
2024/01/13 04:24:52;;;;;;;16.83;5.17;;;2.10;88.40;;;;;;5026644;28;20052;-74
2024/01/13 04:27:18;;;;;;;18.77;4.80;;;2.20;88.50;;;;;;5028893;28;20040;-76
2024/01/13 04:29:44;;;;;;;23.43;5.63;;;2.20;88.50;;;;;;5011617;28;20058;-74
2024/01/13 04:32:09;;;;;;;20.73;5.47;;;2.20;88.50;;;;;;5026456;28;20310;-74
2024/01/13 04:34:35;;;;;;;18.60;5.70;;;2.20;88.60;;;;;;5030538;28;20496;-74
2024/01/13 04:37:01;;;;;;;18.13;5.80;;;2.20;88.50;;;;;;5030936;28;21176;-74
2024/01/13 04:39:27;;;;;;;20.10;5.37;;;2.20;88.50;;;;;;5039164;28;20056;-74
2024/01/13 04:41:53;;;;;;;21.17;5.50;;;2.20;88.50;;;;;;5037059;28;20123;-75
2024/01/13 04:44:18;;;;;;;15.37;6.10;;;2.20;88.50;;;;;;5026889;28;20059;-76
2024/01/13 04:46:44;;;;;;;24.43;5.43;;;2.20;88.60;;;;;;5026858;28;20059;-74
2024/01/13 04:49:10;;;;;;;29.03;6.37;;;2.20;88.60;;;;;;5033384;28;20083;-74
2024/01/13 04:51:36;;;;;;;14.53;5.80;;;2.20;88.60;;;;;;5029877;28;20106;-73
2024/01/13 04:54:02;;;;;;;21.13;5.73;;;2.30;88.60;;;;;;5033198;28;20045;-74
2024/01/13 04:56:28;;;;;;;19.33;6.00;;;2.20;88.60;;;;;;5019057;28;20045;-74
2024/01/13 04:58:54;;;;;;;14.50;5.57;;;2.20;88.50;;;;;;5026022;28;20512;-74
2024/01/13 05:01:19;;;;;;;21.73;5.53;;;2.20;88.60;;;;;;5030653;28;20176;-74
2024/01/13 05:03:45;;;;;;;19.83;5.37;;;2.20;88.60;;;;;;5024533;28;20103;-75
2024/01/13 05:06:11;;;;;;;18.43;4.83;;;2.20;88.60;;;;;;5046894;28;20048;-74
2024/01/13 05:08:36;;;;;;;18.17;4.53;;;2.20;88.60;;;;;;5049909;28;20059;-74
2024/01/13 05:11:02;;;;;;;18.53;5.63;;;2.30;88.70;;;;;;5025138;28;20496;-74
2024/01/13 05:13:28;;;;;;;13.40;4.13;;;2.20;88.60;;;;;;5036034;28;20512;-73
2024/01/13 05:15:53;;;;;;;15.37;4.43;;;2.20;88.60;;;;;;5061285;28;20048;-74
2024/01/13 05:18:19;;;;;;;11.50;4.67;;;2.20;88.60;;;;;;5051947;28;20444;-74
2024/01/13 05:20:45;;;;;;;11.57;4.67;;;2.20;88.70;;;;;;5056737;28;20060;-75
2024/01/13 05:23:10;;;;;;;20.50;4.87;;;2.20;88.70;;;;;;5046568;28;20669;-74
2024/01/13 05:25:36;;;;;;;14.70;4.47;;;2.20;88.70;;;;;;5048046;28;20123;-73
2024/01/13 05:28:03;;;;;;;13.30;5.03;;;2.20;88.60;;;;;;5039683;28;20092;-74
2024/01/13 05:30:32;;;;;;;19.60;5.23;;;2.20;88.70;;;;;;5035083;28;20407;-74
2024/01/13 05:32:59;;;;;;;25.77;4.93;;;2.20;88.70;;;;;;5043934;28;20045;-73
2024/01/13 05:35:25;;;;;;;16.57;4.30;;;2.20;88.70;;;;;;5049003;28;20056;-74
2024/01/13 05:37:51;;;;;;;14.00;4.17;;;2.20;88.70;;;;;;5029698;28;20075;-74
2024/01/13 05:40:16;;;;;;;11.60;3.87;;;2.20;88.70;;;;;;5010744;28;20509;-74
2024/01/13 05:42:42;;;;;;;14.10;3.90;;;2.20;88.70;;;;;;5050815;28;20098;-74
2024/01/13 05:45:08;;;;;;;12.27;4.13;;;2.20;88.70;;;;;;5054046;28;20102;-74
2024/01/13 05:47:34;;;;;;;15.80;4.13;;;2.20;88.70;;;;;;5053162;28;20477;-73
2024/01/13 05:50:01;;;;;;;14.43;3.70;;;2.20;88.70;;;;;;5012823;28;20045;-73
2024/01/13 05:52:26;;;;;;;14.20;4.73;;;2.20;88.70;;;;;;5042007;28;20584;-73
2024/01/13 05:54:52;;;;;;;15.67;4.90;;;2.30;88.70;;;;;;5057791;28;20052;-74
2024/01/13 05:57:18;;;;;;;15.07;4.80;;;2.20;88.70;;;;;;5036132;28;20057;-74
2024/01/13 05:59:44;;;;;;;15.43;5.10;;;2.20;88.70;;;;;;5029775;28;20472;-74
2024/01/13 06:02:09;;;;;;;14.97;4.80;;;2.20;88.70;;;;;;5029566;28;20083;-75
2024/01/13 06:04:35;;;;;;;14.57;4.83;;;2.20;88.60;;;;;;5009289;28;20049;-75
2024/01/13 06:07:04;;;;;;;15.83;5.40;;;2.20;88.60;;;;;;5012235;28;20105;-74
2024/01/13 06:09:30;;;;;;;20.80;4.80;;;2.20;88.60;;;;;;5010036;28;20073;-75
2024/01/13 06:11:56;;;;;;;13.57;5.30;;;2.20;88.70;;;;;;5029095;28;20088;-74
2024/01/13 06:14:22;;;;;;;18.50;5.60;;;2.20;88.70;;;;;;5026042;28;20708;-73
2024/01/13 06:16:47;;;;;;;15.70;5.00;;;2.20;88.60;;;;;;5029004;28;20041;-74
2024/01/13 06:19:14;;;;;;;17.77;5.47;;;2.20;88.70;;;;;;5019243;28;20077;-74
2024/01/13 06:21:43;;;;;;;15.77;4.90;;;2.20;88.70;;;;;;5032286;28;20053;-73
2024/01/13 06:24:10;;;;;;;15.93;4.93;;;2.30;88.70;;;;;;5028993;28;20045;-75
2024/01/13 06:26:40;;;;;;;18.57;5.00;;;2.20;88.70;;;;;;5034685;28;20993;-73
2024/01/13 06:29:07;;;;;;;14.17;4.87;;;2.30;88.80;;;;;;5027890;28;20122;-73
2024/01/13 06:31:32;;;;;;;13.83;4.83;;;2.30;88.70;;;;;;5030861;28;20057;-74
2024/01/13 06:33:58;;;;;;;15.20;4.37;;;2.30;88.70;;;;;;5021137;28;20057;-74
2024/01/13 06:36:24;;;;;;;14.30;4.67;;;2.30;88.70;;;;;;5040548;28;20057;-74
2024/01/13 06:38:50;;;;;;;11.73;4.10;;;2.30;88.80;;;;;;5037078;28;20414;-75
2024/01/13 06:41:15;;;;;;;11.10;3.67;;;2.30;88.80;;;;;;5033048;28;20412;-73
2024/01/13 06:43:41;;;;;;;7.87;3.50;;;2.30;88.70;;;;;;5050964;28;20053;-74
2024/01/13 06:46:08;;;;;;;6.73;2.80;;;2.30;88.80;;;;;;5031860;28;20057;-73
2024/01/13 06:48:34;;;;;;;7.20;2.57;;;2.30;88.80;;;;;;5037578;28;20500;-74
2024/01/13 06:51:00;;;;;;;8.07;2.70;;;2.30;88.80;;;;;;5030515;28;20044;-74
2024/01/13 06:53:25;;;;;;;5.53;2.53;;;2.30;88.90;;;;;;5042821;28;20506;-74
2024/01/13 06:55:51;;;;;;;8.93;3.00;;;2.40;88.90;;;;;;5044618;28;20041;-74
2024/01/13 06:58:17;;;;;;;9.23;2.80;;;2.40;88.90;;;;;;5042957;28;20084;-73
2024/01/13 07:00:43;;;;;;;8.47;3.00;;;2.40;88.90;;;;;;5021528;28;20052;-74
2024/01/13 07:03:09;;;;;;;8.87;2.47;;;2.40;88.90;;;;;;5041854;28;20111;-74
2024/01/13 07:05:34;;;;;;;12.30;2.93;;;2.40;88.90;;;;;;5031980;28;20057;-74
2024/01/13 07:08:00;;;;;;;8.83;3.27;;;2.40;88.80;;;;;;5035322;28;20056;-73
2024/01/13 07:10:28;;;;;;;8.67;3.43;;;2.40;88.90;;;;;;5045044;28;20057;-74
2024/01/13 07:12:53;;;;;;;8.20;3.60;;;2.40;88.90;;;;;;5019819;28;20046;-75
2024/01/13 07:15:19;;;;;;;10.07;3.50;;;2.40;88.90;;;;;;5025969;28;20056;-75
2024/01/13 07:17:45;;;;;;;9.20;4.13;;;2.40;88.90;;;;;;5025904;28;20167;-74
2024/01/13 07:20:11;;;;;;;11.63;4.80;;;2.40;89.00;;;;;;5027830;28;20056;-73
2024/01/13 07:22:37;;;;;;;10.50;4.33;;;2.40;89.00;;;;;;5026683;28;20496;-73
2024/01/13 07:25:03;;;;;;;13.43;4.77;;;2.40;89.00;;;;;;5048222;28;20052;-74
2024/01/13 07:27:29;;;;;;;13.97;5.50;;;2.40;89.00;;;;;;5047201;28;20045;-74
2024/01/13 07:29:55;;;;;;;15.10;6.30;;;2.40;89.00;;;;;;5044927;28;20060;-74
2024/01/13 07:32:21;;;;;;;18.17;7.13;;;2.50;89.00;;;;;;5051115;28;20048;-75
2024/01/13 07:34:47;;;;;;;24.80;9.60;;;2.50;89.00;;;;;;5039031;28;20052;-74
2024/01/13 07:37:12;;;;;;;33.00;13.03;;;2.50;88.90;;;;;;5032097;28;20072;-73
2024/01/13 07:39:38;;;;;;;39.33;13.93;;;2.40;89.00;;;;;;5025495;28;20052;-71
2024/01/13 07:42:04;;;;;;;43.23;16.87;;;2.50;88.90;;;;;;5005343;28;20119;-71
2024/01/13 07:44:30;;;;;;;50.27;20.67;;;2.50;88.90;;;;;;5029345;28;20156;-71
2024/01/13 07:47:01;;;;;;;49.63;21.93;;;2.50;88.90;;;;;;5019451;28;20041;-71
2024/01/13 07:49:27;;;;;;;49.78;24.58;;;2.50;88.90;;;;;;5036246;28;20049;-71
2024/01/13 07:51:54;;;;;;;60.90;25.33;;;2.50;88.90;;;;;;5045141;28;20132;-71
2024/01/13 07:54:20;;;;;;;59.43;27.23;;;2.50;88.80;;;;;;5055626;28;20278;-72
2024/01/13 07:56:49;;;;;;;65.07;27.17;;;2.50;88.80;;;;;;5035715;28;20131;-71
2024/01/13 07:59:18;;;;;;;70.70;30.63;;;2.50;88.70;;;;;;5054051;28;20099;-71
2024/01/13 08:01:44;;;;;;;76.60;34.73;;;2.50;88.70;;;;;;5033390;28;20049;-71
2024/01/13 08:04:12;;;;;;;84.30;35.67;;;2.50;88.70;;;;;;5045462;28;20431;-74
2024/01/13 08:06:38;;;;;;;80.30;36.33;;;2.50;88.70;;;;;;5050230;28;20056;-74
2024/01/13 08:09:04;;;;;;;88.73;39.73;;;2.50;88.60;;;;;;5031803;28;20037;-73
2024/01/13 08:11:29;;;;;;;108.50;45.43;;;2.50;88.50;;;;;;5057940;28;20159;-74
2024/01/13 08:13:56;;;;;;;107.30;49.23;;;2.50;88.50;;;;;;5030164;28;20060;-74
2024/01/13 08:16:22;;;;;;;116.60;54.73;;;2.50;88.50;;;;;;5027164;28;20377;-74
2024/01/13 08:18:47;;;;;;;124.60;57.47;;;2.50;88.40;;;;;;5027512;28;20064;-74
2024/01/13 08:21:13;;;;;;;141.20;60.70;;;2.50;88.40;;;;;;5026189;28;20045;-74
2024/01/13 08:23:39;;;;;;;141.97;62.63;;;2.50;88.30;;;;;;5046347;28;20422;-74
2024/01/13 08:26:05;;;;;;;127.80;60.93;;;2.50;88.20;;;;;;5061037;28;20593;-73
2024/01/13 08:28:30;;;;;;;136.83;64.13;;;2.50;88.00;;;;;;5050082;28;20048;-74
2024/01/13 08:30:56;;;;;;;147.60;63.97;;;2.50;88.00;;;;;;5055894;28;20052;-72
2024/01/13 08:33:22;;;;;;;150.13;67.47;;;2.50;87.80;;;;;;5054702;28;20052;-74
2024/01/13 08:35:48;;;;;;;145.77;70.53;;;2.60;87.60;;;;;;5029552;28;20041;-74
2024/01/13 08:38:13;;;;;;;152.67;72.50;;;2.50;87.60;;;;;;5030922;28;20389;-73
2024/01/13 08:40:40;;;;;;;153.83;72.17;;;2.60;87.40;;;;;;5023593;28;20072;-73
2024/01/13 08:43:06;;;;;;;148.70;71.27;;;2.60;87.20;;;;;;5022432;28;20492;-74
2024/01/13 08:45:33;;;;;;;147.60;76.23;;;2.70;86.90;;;;;;5038919;28;20041;-73
2024/01/13 08:47:59;;;;;;;143.77;75.20;;;2.70;86.70;;;;;;5019572;28;20070;-73
2024/01/13 08:50:25;;;;;;;141.43;73.87;;;2.70;86.60;;;;;;5015494;28;20053;-73
2024/01/13 08:52:55;;;;;;;144.73;74.97;;;2.70;86.50;;;;;;5019953;28;20052;-73
2024/01/13 08:55:26;;;;;;;144.97;70.60;;;2.70;86.40;;;;;;4995882;28;20052;-75
2024/01/13 08:57:52;;;;;;;122.77;68.17;;;2.80;86.10;;;;;;5032388;28;20045;-75
2024/01/13 09:00:19;;;;;;;117.70;67.40;;;2.70;85.80;;;;;;5031355;28;20044;-75
2024/01/13 09:02:45;;;;;;;122.23;66.07;;;2.70;85.60;;;;;;5018232;28;20420;-73
2024/01/13 09:05:11;;;;;;;117.67;66.17;;;2.80;85.60;;;;;;5023692;28;20044;-73
2024/01/13 09:07:37;;;;;;;117.57;63.90;;;2.80;85.50;;;;;;5003452;28;20041;-73
2024/01/13 09:10:04;;;;;;;122.47;63.93;;;2.80;85.50;;;;;;5023673;28;20254;-73
2024/01/13 09:12:30;;;;;;;118.07;63.57;;;2.80;85.40;;;;;;4998179;28;20046;-73
2024/01/13 09:14:56;;;;;;;110.27;62.17;;;2.80;85.20;;;;;;5026187;28;20054;-73
2024/01/13 09:17:22;;;;;;;113.80;61.77;;;2.80;85.20;;;;;;5019209;28;20048;-74
2024/01/13 09:19:48;;;;;;;112.53;61.50;;;2.70;85.20;;;;;;5036813;28;20476;-76
2024/01/13 09:22:14;;;;;;;121.40;63.97;;;2.70;85.10;;;;;;5041246;28;20432;-73
2024/01/13 09:24:42;;;;;;;113.67;61.20;;;2.70;85.20;;;;;;5026518;28;20496;-73
2024/01/13 09:27:07;;;;;;;120.23;64.77;;;2.80;85.40;;;;;;5047891;28;20140;-75
2024/01/13 09:29:33;;;;;;;116.60;62.77;;;2.70;85.30;;;;;;5048553;28;20060;-73
2024/01/13 09:31:59;;;;;;;115.47;63.37;;;2.70;85.40;;;;;;5045175;28;20068;-73
2024/01/13 09:34:25;;;;;;;114.27;61.83;;;2.70;85.50;;;;;;5027916;28;20446;-74
2024/01/13 09:36:51;;;;;;;110.03;60.77;;;2.70;85.50;;;;;;5050902;28;20048;-73
2024/01/13 09:39:17;;;;;;;113.07;61.67;;;2.70;85.60;;;;;;5042105;28;20455;-73
2024/01/13 09:41:47;;;;;;;103.77;58.80;;;2.70;85.60;;;;;;5051079;28;20509;-73
2024/01/13 09:44:27;;;;;;;108.43;58.63;;;2.80;85.50;;;;;;5043012;28;20041;-73
2024/01/13 09:46:55;;;;;;;105.83;57.83;;;2.80;85.40;;;;;;5026177;28;20049;-74
2024/01/13 09:49:22;;;;;;;99.67;57.63;;;2.80;85.40;;;;;;5038770;28;20045;-73
2024/01/13 09:51:49;;;;;;;98.27;56.17;;;2.90;85.40;;;;;;5046534;28;20056;-75
2024/01/13 09:54:32;;;;;;;98.57;56.03;;;2.90;85.20;;;;;;5043057;28;20472;-75
2024/01/13 09:56:59;;;;;;;101.77;59.20;;;2.90;85.10;;;;;;5050794;28;20140;-74
2024/01/13 09:59:28;;;;;;;108.80;58.33;;;2.90;84.90;;;;;;5038719;28;20053;-73
2024/01/13 10:01:54;;;;;;;108.40;59.17;;;2.90;84.90;;;;;;5041052;28;20049;-74
2024/01/13 10:04:20;;;;;;;106.97;58.43;;;2.90;84.90;;;;;;5044929;28;20049;-73
2024/01/13 10:06:47;;;;;;;109.50;56.17;;;2.90;84.90;;;;;;5041918;28;20128;-74
2024/01/13 10:09:14;;;;;;;97.67;57.93;;;2.90;85.00;;;;;;5021710;28;20091;-73
2024/01/13 10:11:40;;;;;;;93.73;52.80;;;2.90;85.10;;;;;;5048397;28;20057;-73
2024/01/13 10:14:07;;;;;;;91.47;52.23;;;2.90;85.20;;;;;;5046857;28;20049;-74
2024/01/13 10:16:35;;;;;;;98.97;51.57;;;3.00;85.30;;;;;;5040356;28;20052;-74
2024/01/13 10:19:08;;;;;;;100.60;51.67;;;3.00;85.40;;;;;;5044802;28;20106;-73
2024/01/13 10:21:36;;;;;;;87.90;47.50;;;3.10;85.50;;;;;;5025726;28;20045;-74
2024/01/13 10:24:02;;;;;;;88.57;48.13;;;3.10;85.40;;;;;;5016982;28;20107;-73
2024/01/13 10:26:32;;;;;;;91.50;47.67;;;3.10;85.40;;;;;;5041842;28;20047;-73
2024/01/13 10:28:58;;;;;;;89.97;48.60;;;3.20;85.40;;;;;;5026949;28;20042;-74
2024/01/13 10:31:25;;;;;;;85.67;47.77;;;3.30;85.50;;;;;;5050965;28;20048;-74
2024/01/13 10:33:51;;;;;;;91.43;48.43;;;3.30;85.30;;;;;;5051469;28;20059;-75
2024/01/13 10:36:24;;;;;;;87.20;46.40;;;3.30;85.30;;;;;;5035119;28;20102;-74
2024/01/13 10:38:51;;;;;;;87.93;43.80;;;3.20;85.40;;;;;;5032195;28;20056;-75
2024/01/13 10:41:27;;;;;;;79.37;44.27;;;3.20;85.60;;;;;;5049025;28;20458;-73
2024/01/13 10:43:55;;;;;;;79.47;41.97;;;3.20;85.60;;;;;;5053061;28;20053;-73
2024/01/13 10:46:23;;;;;;;83.87;39.67;;;3.20;85.80;;;;;;5021808;28;20044;-73
2024/01/13 10:48:51;;;;;;;70.87;36.50;;;3.20;85.90;;;;;;5034909;28;20052;-73
2024/01/13 10:51:19;;;;;;;78.53;36.23;;;3.20;86.00;;;;;;5021291;28;20053;-74
2024/01/13 10:53:47;;;;;;;71.17;34.57;;;3.20;86.10;;;;;;5030244;28;20064;-75
2024/01/13 10:56:15;;;;;;;70.00;34.60;;;3.20;86.30;;;;;;5026119;28;20140;-73
2024/01/13 10:58:43;;;;;;;64.50;34.00;;;3.10;86.50;;;;;;5013918;28;20087;-73
2024/01/13 11:01:09;;;;;;;73.77;32.50;;;3.20;86.60;;;;;;5018913;28;20468;-73
2024/01/13 11:03:37;;;;;;;76.97;31.00;;;3.30;86.60;;;;;;5033664;28;20508;-74
2024/01/13 11:06:04;;;;;;;75.00;29.77;;;3.30;86.80;;;;;;5002065;28;20073;-74
2024/01/13 11:08:30;;;;;;;57.40;28.17;;;3.30;86.90;;;;;;5015788;28;20073;-74
2024/01/13 11:10:57;;;;;;;61.33;27.03;;;3.30;86.80;;;;;;5023324;28;20350;-73
2024/01/13 11:13:27;;;;;;;55.30;25.27;;;3.30;87.00;;;;;;5018690;28;20500;-73
2024/01/13 11:16:06;;;;;;;48.60;22.43;;;3.30;87.00;;;;;;5025119;28;20107;-74
2024/01/13 11:18:46;;;;;;;55.13;21.17;;;3.30;87.10;;;;;;5019735;28;20049;-73
2024/01/13 11:21:12;;;;;;;44.13;20.13;;;3.30;87.00;;;;;;5025512;28;20053;-73
2024/01/13 11:23:58;;;;;;;52.10;20.90;;;3.40;87.20;;;;;;5052283;28;20055;-73
2024/01/13 11:26:38;;;;;;;53.13;21.40;;;3.40;87.10;;;;;;5047609;28;20082;-74
2024/01/13 11:29:28;;;;;;;48.73;19.73;;;3.30;87.20;;;;;;5038900;28;20049;-73
2024/01/13 11:31:57;;;;;;;52.97;18.70;;;3.30;87.30;;;;;;5007232;28;20226;-74
2024/01/13 11:34:23;;;;;;;44.03;17.60;;;3.40;87.50;;;;;;5030404;28;20470;-74
2024/01/13 11:36:50;;;;;;;42.27;15.53;;;3.40;87.50;;;;;;5008007;28;20512;-73
2024/01/13 11:39:17;;;;;;;45.30;17.43;;;3.40;87.70;;;;;;5027903;28;20504;-74
2024/01/13 11:41:49;;;;;;;48.03;16.50;;;3.50;87.80;;;;;;5011319;28;20404;-74
2024/01/13 11:44:30;;;;;;;48.87;18.20;;;3.50;87.80;;;;;;5038770;28;20052;-74
2024/01/13 11:47:07;;;;;;;50.22;18.13;;;3.50;87.90;;;;;;5027370;28;20045;-74
2024/01/13 11:49:40;;;;;;;46.03;18.93;;;3.50;87.90;;;;;;5027004;28;20137;-73
2024/01/13 11:52:07;;;;;;;42.27;18.67;;;3.50;88.00;;;;;;5009338;28;20061;-74
2024/01/13 11:54:35;;;;;;;47.03;19.13;;;3.50;88.00;;;;;;5025986;28;20059;-74
2024/01/13 11:57:03;;;;;;;45.37;19.20;;;3.50;88.10;;;;;;5045469;28;20514;-74
2024/01/13 11:59:29;;;;;;;44.77;17.17;;;3.60;88.20;;;;;;5022524;28;20102;-74
2024/01/13 12:01:56;;;;;;;35.97;16.27;;;3.60;88.30;;;;;;5028704;28;20053;-74
2024/01/13 12:04:25;;;;;;;43.90;15.80;;;3.60;88.30;;;;;;5022480;28;20052;-76
2024/01/13 12:06:53;;;;;;;41.57;14.87;;;3.60;88.30;;;;;;5003191;28;20046;-73
2024/01/13 12:09:22;;;;;;;32.43;14.20;;;3.60;88.40;;;;;;5011374;28;20131;-72
2024/01/13 12:12:07;;;;;;;35.80;14.93;;;3.70;88.40;;;;;;5010274;28;20053;-72
2024/01/13 12:14:35;;;;;;;35.17;13.13;;;3.70;88.40;;;;;;5005947;28;20080;-73
2024/01/13 12:17:04;;;;;;;38.57;13.40;;;3.70;88.50;;;;;;5004732;28;20046;-72
2024/01/13 12:19:32;;;;;;;29.53;10.60;;;3.80;88.50;;;;;;5027544;28;20049;-73
2024/01/13 12:21:58;;;;;;;30.87;9.53;;;3.80;88.60;;;;;;5028618;28;20055;-72
2024/01/13 12:24:31;;;;;;;25.40;7.37;;;3.90;88.70;;;;;;5026537;28;20068;-73
2024/01/13 12:26:57;;;;;;;18.13;6.43;;;3.90;88.70;;;;;;5031754;28;20396;-74
2024/01/13 12:29:30;;;;;;;22.50;5.90;;;3.90;88.70;;;;;;5020019;28;20053;-72
2024/01/13 12:32:00;;;;;;;16.60;5.00;;;4.00;88.80;;;;;;5019304;28;20045;-73
2024/01/13 12:34:26;;;;;;;19.77;4.90;;;4.00;88.80;;;;;;5038485;28;20124;-72
2024/01/13 12:36:53;;;;;;;13.17;5.07;;;4.00;88.80;;;;;;5034871;28;20404;-72
2024/01/13 12:39:19;;;;;;;13.83;4.03;;;4.00;88.90;;;;;;5008513;28;20076;-72
2024/01/13 12:41:47;;;;;;;13.93;4.67;;;4.10;88.80;;;;;;5018350;28;20052;-72